Time;durP1;ratioP1;P1;durP2;ratioP2;P2;SDS_P1;SDS_P2;PMS_P1;PMS_P2;Temp;Humidity;BMP_temperature;BMP_pressure;BME280_temperature;BME280_humidity;BME280_pressure;Samples;Min_cycle;Max_cycle;Signal;HPM_P1;HPM_P2
2022/03/10 00:02:19;;;;;;;32.33;20.63;;;;;;;4.33;51.00;102221.56;4994828;28;20041;-25
2022/03/10 00:04:45;;;;;;;33.63;20.23;;;;;;;4.34;51.14;102225.94;4996282;28;20037;-22
2022/03/10 00:07:11;;;;;;;34.20;20.10;;;;;;;4.31;51.79;102234.25;4996297;28;20543;-24
2022/03/10 00:09:37;;;;;;;34.53;20.50;;;;;;;4.12;52.75;102227.84;4996181;28;20041;-23
2022/03/10 00:12:03;;;;;;;32.73;20.43;;;;;;;4.13;52.89;102234.06;4996103;28;20042;-24
2022/03/10 00:14:29;;;;;;;34.30;21.83;;;;;;;3.89;55.01;102248.66;4996721;28;20280;-25
2022/03/10 00:16:57;;;;;;;31.70;20.40;;;;;;;3.92;54.29;102243.00;4996307;28;20124;-21
2022/03/10 00:19:23;;;;;;;34.50;20.57;;;;;;;3.89;53.66;102245.97;4977202;28;20371;-26
2022/03/10 00:21:50;;;;;;;32.43;19.70;;;;;;;3.78;54.25;102232.63;4996114;28;20036;-24
2022/03/10 00:24:18;;;;;;;34.83;21.23;;;;;;;3.70;54.52;102241.34;4996434;28;20034;-25
2022/03/10 00:26:45;;;;;;;33.93;20.47;;;;;;;3.58;55.10;102237.88;4993359;28;20038;-22
2022/03/10 00:29:11;;;;;;;34.43;20.53;;;;;;;3.78;53.85;102240.66;4962644;28;20034;-25
2022/03/10 00:31:37;;;;;;;34.00;21.13;;;;;;;3.72;54.29;102242.88;4964490;28;20073;-21
2022/03/10 00:34:04;;;;;;;31.97;19.47;;;;;;;3.72;54.37;102240.19;4982181;28;20153;-22
2022/03/10 00:36:30;;;;;;;34.00;20.83;;;;;;;3.69;54.11;102245.00;4993768;28;20034;-25
2022/03/10 00:38:56;;;;;;;36.03;21.07;;;;;;;3.70;54.21;102246.69;4996002;28;20444;-24
2022/03/10 00:41:23;;;;;;;36.43;20.87;;;;;;;3.68;54.18;102243.28;4977915;28;20081;-21
2022/03/10 00:43:49;;;;;;;31.40;20.10;;;;;;;3.62;54.63;102251.84;4982328;28;20428;-28
2022/03/10 00:46:14;;;;;;;34.47;20.20;;;;;;;3.60;54.60;102235.06;4995774;28;20695;-27
2022/03/10 00:48:41;;;;;;;35.43;19.80;;;;;;;3.60;54.72;102246.63;4978026;28;20042;-25
2022/03/10 00:51:08;;;;;;;33.50;20.13;;;;;;;3.57;54.76;102248.72;4972564;28;20038;-21
2022/03/10 00:53:34;;;;;;;34.00;20.20;;;;;;;3.58;55.00;102248.59;4977429;28;20132;-25
2022/03/10 00:56:01;;;;;;;35.87;20.50;;;;;;;3.57;54.99;102246.88;4995544;28;20059;-24
2022/03/10 00:58:27;;;;;;;33.80;20.13;;;;;;;3.54;54.87;102237.28;4995723;28;20707;-21
2022/03/10 01:00:53;;;;;;;33.70;20.73;;;;;;;3.52;55.07;102254.47;4977284;28;20462;-24
2022/03/10 01:03:20;;;;;;;33.20;20.60;;;;;;;3.51;55.29;102247.44;4976769;28;20112;-25
2022/03/10 01:05:53;;;;;;;32.13;19.97;;;;;;;3.50;55.02;102254.59;4977163;28;20048;-21
2022/03/10 01:08:24;;;;;;;35.80;21.03;;;;;;;3.46;55.05;102247.81;4977079;28;20576;-23
2022/03/10 01:10:54;;;;;;;33.20;20.93;;;;;;;3.35;56.10;102229.97;4977233;28;20053;-30
2022/03/10 01:13:19;;;;;;;33.43;20.33;;;;;;;3.46;55.45;102246.97;4998495;28;20514;-23
2022/03/10 01:15:49;;;;;;;35.33;20.23;;;;;;;3.41;55.65;102247.34;4972249;28;20053;-21
2022/03/10 01:18:16;;;;;;;32.27;19.73;;;;;;;3.41;55.79;102247.34;4996345;28;20042;-21
2022/03/10 01:20:42;;;;;;;34.47;20.30;;;;;;;3.40;55.44;102245.66;4977618;28;20033;-24
2022/03/10 01:23:12;;;;;;;34.60;20.47;;;;;;;3.40;55.97;102253.69;4962381;28;20549;-22
2022/03/10 01:25:38;;;;;;;32.90;19.87;;;;;;;3.38;56.31;102242.25;4981058;28;20048;-25
2022/03/10 01:28:05;;;;;;;31.53;19.50;;;;;;;3.38;55.99;102239.56;4999379;28;20044;-26
2022/03/10 01:30:30;;;;;;;33.00;19.17;;;;;;;3.38;56.31;102235.03;4977677;28;20034;-21
2022/03/10 01:32:57;;;;;;;33.80;21.13;;;;;;;3.38;56.36;102232.38;4981090;28;20410;-29
2022/03/10 01:35:28;;;;;;;34.70;20.13;;;;;;;3.37;56.35;102241.41;4982172;28;20057;-25
2022/03/10 01:37:54;;;;;;;32.83;20.13;;;;;;;3.31;56.42;102241.91;4981697;28;20132;-24
2022/03/10 01:40:20;;;;;;;33.97;19.57;;;;;;;3.33;56.37;102239.09;4980738;28;20036;-27
2022/03/10 01:42:49;;;;;;;33.10;19.43;;;;;;;3.28;56.36;102239.50;4980966;28;20030;-24
2022/03/10 01:45:17;;;;;;;32.57;19.33;;;;;;;3.25;56.25;102237.09;4982146;28;20770;-21
2022/03/10 01:47:43;;;;;;;35.13;19.97;;;;;;;3.23;56.80;102236.34;4968292;28;20395;-25
2022/03/10 01:50:12;;;;;;;33.60;19.03;;;;;;;3.25;56.50;102241.56;4979520;28;20883;-24
2022/03/10 01:52:39;;;;;;;35.00;20.07;;;;;;;3.21;56.82;102241.84;4999559;28;20158;-22
2022/03/10 01:55:06;;;;;;;34.10;19.77;;;;;;;3.15;57.18;102228.97;4980204;28;20049;-24
2022/03/10 01:57:32;;;;;;;34.50;21.10;;;;;;;3.17;56.82;102235.03;4980902;28;20042;-26
2022/03/10 02:00:00;;;;;;;33.17;19.97;;;;;;;3.16;57.43;102233.34;4999268;28;20041;-22
2022/03/10 02:02:26;;;;;;;33.67;19.10;;;;;;;3.15;57.27;102226.28;4971792;28;20145;-25
2022/03/10 02:04:52;;;;;;;32.00;19.43;;;;;;;3.14;57.08;102223.72;4971461;28;20301;-21
2022/03/10 02:10:18;;;;;;;35.73;19.67;;;;;;;3.09;57.43;102231.28;4999963;28;20073;-22
2022/03/10 02:12:44;;;;;;;31.73;19.57;;;;;;;3.10;57.69;102233.00;4974988;28;20068;-24
2022/03/10 02:17:59;;;;;;;32.03;19.40;;;;;;;2.89;57.71;102198.19;4998161;28;20056;-23
2022/03/10 02:20:26;;;;;;;34.03;19.87;;;;;;;3.00;57.71;102228.41;4998965;28;20038;-22
2022/03/10 02:22:54;;;;;;;34.80;20.77;;;;;;;2.98;58.07;102234.91;4980341;28;20882;-22
2022/03/10 02:25:24;;;;;;;32.30;19.47;;;;;;;2.97;57.73;102225.16;4973404;28;20042;-25
2022/03/10 02:27:51;;;;;;;31.60;18.73;;;;;;;2.89;58.48;102216.91;4979760;28;20395;-22
2022/03/10 02:30:18;;;;;;;33.60;19.73;;;;;;;2.92;58.18;102220.16;4980028;28;20293;-23
2022/03/10 02:32:48;;;;;;;34.30;19.50;;;;;;;2.91;58.38;102220.31;4978705;28;20061;-24
2022/03/10 02:35:14;;;;;;;31.97;18.57;;;;;;;2.87;58.67;102225.91;4996647;28;20033;-25
2022/03/10 02:37:44;;;;;;;35.03;20.27;;;;;;;2.84;58.64;102223.50;4997787;28;20297;-22
2022/03/10 02:40:10;;;;;;;32.67;19.33;;;;;;;2.81;59.11;102226.41;4998888;28;20299;-24
2022/03/10 02:42:37;;;;;;;31.00;19.33;;;;;;;2.79;59.16;102224.84;4955747;28;20042;-25
2022/03/10 02:45:05;;;;;;;31.77;19.73;;;;;;;2.77;59.11;102221.44;4980437;28;20046;-25
2022/03/10 02:47:31;;;;;;;32.57;18.83;;;;;;;2.76;59.41;102217.94;4995781;28;21412;-27
2022/03/10 02:49:57;;;;;;;35.23;20.47;;;;;;;2.74;59.30;102219.88;4998598;28;20796;-25
2022/03/10 02:52:24;;;;;;;32.67;20.10;;;;;;;2.69;59.79;102228.28;4998105;28;20033;-26
2022/03/10 02:54:52;;;;;;;34.57;20.23;;;;;;;2.72;60.04;102231.69;4998711;28;20076;-22
2022/03/10 02:57:18;;;;;;;34.53;20.17;;;;;;;2.69;60.01;102225.63;4998026;28;20095;-26
2022/03/10 02:59:45;;;;;;;37.67;20.93;;;;;;;2.68;59.98;102234.63;4979437;28;20049;-22
2022/03/10 03:02:12;;;;;;;34.87;19.37;;;;;;;2.69;60.06;102232.78;4962345;28;20951;-23
2022/03/10 03:04:38;;;;;;;33.53;19.60;;;;;;;2.67;59.91;102229.38;4997422;28;20296;-21
2022/03/10 03:07:06;;;;;;;33.67;19.00;;;;;;;2.64;60.01;102235.00;4997242;28;20320;-25
2022/03/10 03:09:33;;;;;;;35.43;20.30;;;;;;;2.61;60.01;102233.44;4998375;28;20045;-23
2022/03/10 03:11:59;;;;;;;32.30;19.60;;;;;;;2.58;60.28;102224.78;4997551;28;20673;-24
2022/03/10 03:14:26;;;;;;;33.23;19.50;;;;;;;2.58;60.66;102235.50;4998254;28;20304;-25
2022/03/10 03:16:55;;;;;;;32.40;19.03;;;;;;;2.53;60.79;102236.72;4997603;28;20038;-27
2022/03/10 03:22:34;;;;;;;30.70;19.10;;;;;;;2.46;61.17;102219.47;5014593;22;20328;-22
2022/03/10 03:25:01;;;;;;;34.13;20.23;;;;;;;2.52;60.82;102232.34;4972435;28;20358;-21
2022/03/10 03:27:28;;;;;;;35.07;19.67;;;;;;;2.50;60.86;102238.78;5006556;28;20784;-27
2022/03/10 03:29:58;;;;;;;34.10;19.23;;;;;;;2.49;60.93;102240.63;4989315;28;20754;-24
2022/03/10 03:32:24;;;;;;;33.67;19.47;;;;;;;2.46;61.08;102246.22;4987310;28;20120;-23
2022/03/10 03:34:51;;;;;;;33.50;20.07;;;;;;;2.48;61.33;102243.41;4987868;28;20323;-26
2022/03/10 03:37:16;;;;;;;35.17;20.17;;;;;;;2.45;61.25;102241.84;4969713;28;20811;-25
2022/03/10 03:39:42;;;;;;;33.90;20.20;;;;;;;2.45;60.81;102246.31;5005756;28;20116;-28
2022/03/10 03:42:10;;;;;;;33.87;19.43;;;;;;;2.43;61.16;102246.44;4986613;28;20129;-26
2022/03/10 03:44:37;;;;;;;35.77;20.07;;;;;;;2.41;61.13;102240.38;4987758;28;20355;-22
2022/03/10 03:47:03;;;;;;;34.60;19.77;;;;;;;2.42;61.15;102243.91;5005086;28;20448;-24
2022/03/10 03:49:29;;;;;;;31.90;19.67;;;;;;;2.28;61.54;102232.47;4987140;28;20677;-23
2022/03/10 03:51:56;;;;;;;32.93;19.93;;;;;;;2.34;61.61;102249.88;4987024;28;20315;-22
2022/03/10 03:54:24;;;;;;;35.47;19.20;;;;;;;2.34;61.46;102255.25;4990444;28;20424;-22
2022/03/10 03:56:50;;;;;;;34.37;19.43;;;;;;;2.27;61.48;102260.22;4987614;28;20034;-25
2022/03/10 03:59:16;;;;;;;32.43;20.63;;;;;;;2.17;61.84;102249.38;5005599;28;20323;-22
2022/03/10 04:01:42;;;;;;;33.20;19.60;;;;;;;2.16;62.39;102266.44;5005395;28;20359;-25
2022/03/10 04:04:08;;;;;;;33.57;19.67;;;;;;;2.02;62.47;102253.28;4990966;28;20590;-21
2022/03/10 04:06:35;;;;;;;33.83;20.13;;;;;;;2.09;62.23;102267.84;4979245;28;20092;-25
2022/03/10 04:09:01;;;;;;;32.47;19.73;;;;;;;1.90;63.59;102264.94;5005289;28;20041;-27
2022/03/10 04:11:27;;;;;;;34.17;20.17;;;;;;;1.81;64.22;102269.16;5004740;28;20295;-21
2022/03/10 04:13:53;;;;;;;33.33;20.13;;;;;;;1.72;64.12;102269.91;4987348;28;20949;-21
2022/03/10 04:16:20;;;;;;;33.40;20.27;;;;;;;1.68;64.07;102264.78;5005595;28;20292;-25
2022/03/10 04:18:46;;;;;;;34.77;20.07;;;;;;;1.61;63.91;102254.69;4987312;28;20486;-24
2022/03/10 04:21:12;;;;;;;33.40;20.07;;;;;;;1.60;64.45;102263.69;4987634;28;20731;-24
2022/03/10 04:23:38;;;;;;;35.77;20.57;;;;;;;1.61;64.23;102273.41;5004719;28;20296;-25
2022/03/10 04:26:04;;;;;;;33.80;20.00;;;;;;;1.58;64.84;102268.28;4981465;28;20378;-25
2022/03/10 04:28:30;;;;;;;33.97;19.87;;;;;;;1.47;65.03;102271.75;4970750;28;20050;-24
2022/03/10 04:30:58;;;;;;;32.40;19.50;;;;;;;1.37;65.63;102270.78;4975209;28;20772;-23
2022/03/10 04:33:37;;;;;;;33.90;20.83;;;;;;;1.27;66.18;102270.63;4990693;28;20509;-24
2022/03/10 04:36:04;;;;;;;35.50;20.93;;;;;;;1.07;67.67;102266.78;4995087;28;20306;-23
2022/03/10 04:38:30;;;;;;;33.03;20.23;;;;;;;0.97;67.68;102267.44;4986736;28;20300;-29
2022/03/10 04:40:57;;;;;;;34.73;20.70;;;;;;;0.90;67.47;102276.88;4989992;28;20292;-22
2022/03/10 04:43:23;;;;;;;35.60;20.63;;;;;;;0.88;67.42;102267.28;5004417;28;20300;-26
2022/03/10 04:45:49;;;;;;;34.77;19.93;;;;;;;0.89;67.80;102269.00;5004852;28;20303;-26
2022/03/10 04:48:18;;;;;;;31.07;20.20;;;;;;;0.92;67.67;102271.44;4987249;28;20125;-28
2022/03/10 04:50:44;;;;;;;34.20;19.97;;;;;;;0.88;67.45;102269.94;5004372;28;20038;-23
2022/03/10 04:53:13;;;;;;;35.80;20.97;;;;;;;0.87;67.76;102276.25;4987274;28;20655;-22
2022/03/10 04:55:39;;;;;;;34.37;20.17;;;;;;;0.84;67.63;102277.31;5004551;28;20304;-25
2022/03/10 04:58:08;;;;;;;34.33;20.03;;;;;;;0.78;67.97;102283.97;5002896;28;20285;-26
2022/03/10 05:00:34;;;;;;;33.70;19.87;;;;;;;0.70;68.65;102272.16;4986819;28;20042;-25
2022/03/10 05:03:01;;;;;;;32.10;19.67;;;;;;;0.68;68.99;102272.28;4989587;28;20858;-22
2022/03/10 05:05:28;;;;;;;34.10;19.83;;;;;;;0.54;68.35;102267.91;4969827;28;20330;-24
2022/03/10 05:07:54;;;;;;;33.33;19.07;;;;;;;0.60;68.79;102279.97;4979004;28;20877;-26
2022/03/10 05:10:20;;;;;;;35.47;20.73;;;;;;;0.54;68.32;102264.41;5002672;28;20292;-24
2022/03/10 05:12:59;;;;;;;33.33;19.83;;;;;;;0.52;68.90;102282.31;5003676;28;20328;-25
2022/03/10 05:15:28;;;;;;;34.17;20.43;;;;;;;0.49;68.80;102283.41;4990282;28;20288;-24
2022/03/10 05:17:55;;;;;;;36.10;20.73;;;;;;;0.41;68.82;102275.97;4990160;28;20655;-24
2022/03/10 05:23:31;;;;;;;33.77;20.57;;;;;;;0.35;70.36;102284.38;5055388;22;20324;-26
2022/03/10 05:25:57;;;;;;;35.13;20.67;;;;;;;0.41;70.21;102278.63;5008339;28;21119;-26
2022/03/10 05:28:23;;;;;;;35.93;20.47;;;;;;;0.46;69.13;102286.28;5012890;28;20935;-23
2022/03/10 05:30:50;;;;;;;36.80;20.50;;;;;;;0.45;69.33;102288.13;5003318;28;20295;-25
2022/03/10 05:33:16;;;;;;;38.67;20.33;;;;;;;0.41;69.29;102288.44;5024141;28;20295;-22
2022/03/10 05:35:42;;;;;;;36.03;19.67;;;;;;;0.47;68.51;102288.00;5023765;28;20752;-27
2022/03/10 05:38:09;;;;;;;35.87;20.70;;;;;;;0.41;68.83;102283.97;5012446;28;20307;-21
2022/03/10 05:40:40;;;;;;;37.77;21.10;;;;;;;0.39;68.69;102279.72;5005700;28;20049;-23
2022/03/10 05:43:07;;;;;;;32.83;20.23;;;;;;;0.43;68.14;102283.84;5021436;28;20295;-28
2022/03/10 05:45:34;;;;;;;34.27;20.27;;;;;;;0.46;67.62;102283.63;5024909;28;20298;-28
2022/03/10 05:48:00;;;;;;;35.93;19.33;;;;;;;0.42;67.48;102279.47;5022473;28;20667;-22
2022/03/10 05:50:27;;;;;;;35.53;19.77;;;;;;;0.45;67.02;102282.78;5004312;28;21439;-21
2022/03/10 05:52:57;;;;;;;35.77;19.87;;;;;;;0.48;67.07;102284.38;5023533;28;20339;-25
2022/03/10 05:55:27;;;;;;;35.40;18.77;;;;;;;0.47;66.80;102280.84;5009134;28;20640;-22
2022/03/10 05:58:01;;;;;;;34.07;19.47;;;;;;;0.49;66.97;102276.28;5024994;28;20846;-25
2022/03/10 06:00:28;;;;;;;32.40;19.50;;;;;;;0.38;66.61;102260.19;5025643;28;20334;-23
2022/03/10 06:02:57;;;;;;;34.33;19.97;;;;;;;0.52;66.40;102274.31;5003836;28;20779;-23
2022/03/10 06:05:25;;;;;;;38.87;20.07;;;;;;;0.56;66.83;102279.34;5014220;28;20295;-21
2022/03/10 06:07:54;;;;;;;35.13;18.97;;;;;;;0.58;66.37;102282.75;5006274;28;20648;-27
2022/03/10 06:10:22;;;;;;;35.73;19.73;;;;;;;0.59;66.87;102280.94;5006989;28;20300;-27
2022/03/10 06:12:50;;;;;;;36.73;20.70;;;;;;;0.58;66.48;102277.41;5028457;28;20331;-24
2022/03/10 06:15:20;;;;;;;36.90;20.50;;;;;;;0.59;66.74;102284.44;5029318;28;20842;-20
2022/03/10 06:17:46;;;;;;;34.80;19.70;;;;;;;0.62;66.75;102273.56;5026868;28;20301;-21
2022/03/10 06:20:15;;;;;;;34.80;20.23;;;;;;;0.55;66.80;102268.78;5027246;28;20323;-26
2022/03/10 06:22:46;;;;;;;34.77;20.00;;;;;;;0.59;66.68;102278.28;5007715;28;20132;-21
2022/03/10 06:25:16;;;;;;;33.30;19.93;;;;;;;0.59;66.44;102267.59;5010514;28;20811;-24
2022/03/10 06:27:43;;;;;;;34.90;18.87;;;;;;;0.68;66.48;102277.63;5027443;28;20353;-25
2022/03/10 06:30:09;;;;;;;33.83;20.47;;;;;;;0.73;67.38;102291.44;5026999;28;20299;-25
2022/03/10 06:32:36;;;;;;;34.80;20.20;;;;;;;0.80;67.37;102287.38;5010132;28;20292;-23
2022/03/10 06:35:02;;;;;;;33.93;19.47;;;;;;;0.77;66.28;102282.25;5006247;28;20315;-22
2022/03/10 06:37:28;;;;;;;33.10;20.30;;;;;;;0.87;66.21;102294.94;5006581;28;20414;-27
2022/03/10 06:39:56;;;;;;;34.77;19.80;;;;;;;0.92;65.94;102300.78;5026506;28;20296;-25
2022/03/10 06:42:36;;;;;;;35.03;20.17;;;;;;;0.98;65.38;102297.66;5027449;28;20123;-23
2022/03/10 06:45:02;;;;;;;32.97;20.57;;;;;;;1.03;65.55;102303.50;5008614;28;20303;-23
2022/03/10 06:47:32;;;;;;;33.33;20.27;;;;;;;1.11;65.35;102302.94;5020220;28;20883;-22
2022/03/10 06:49:59;;;;;;;33.10;20.23;;;;;;;1.12;65.03;102288.66;5027576;28;20295;-23
2022/03/10 06:52:30;;;;;;;33.20;20.60;;;;;;;1.10;65.05;102286.09;5010110;28;20311;-21
2022/03/10 06:54:56;;;;;;;33.53;20.17;;;;;;;1.26;65.27;102301.78;5026200;28;20283;-20
2022/03/10 06:57:23;;;;;;;33.97;20.63;;;;;;;1.26;64.61;102298.28;5009981;28;20295;-28
2022/03/10 06:59:49;;;;;;;35.07;19.47;;;;;;;1.41;64.74;102309.63;5026195;28;20402;-26
2022/03/10 07:02:19;;;;;;;35.10;20.30;;;;;;;1.49;64.08;102309.91;5008438;28;21064;-23
2022/03/10 07:04:48;;;;;;;32.50;19.40;;;;;;;1.58;64.44;102303.88;5028185;28;20633;-26
2022/03/10 07:07:16;;;;;;;36.80;20.77;;;;;;;1.56;64.06;102294.25;5027455;28;20746;-20
2022/03/10 07:09:46;;;;;;;33.33;19.50;;;;;;;1.78;63.08;102312.16;5029762;28;20303;-22
2022/03/10 07:12:17;;;;;;;35.87;20.33;;;;;;;1.89;62.85;102316.69;5029148;28;21005;-20
2022/03/10 07:14:49;;;;;;;33.97;19.30;;;;;;;1.92;62.06;102308.44;5009753;28;20795;-20
2022/03/10 07:17:19;;;;;;;34.77;20.37;;;;;;;2.07;62.33;102317.94;5013193;28;20387;-21
2022/03/10 07:19:50;;;;;;;32.70;20.07;;;;;;;2.16;61.33;102317.22;4990230;28;20869;-24
2022/03/10 07:22:21;;;;;;;38.13;21.07;;;;;;;2.27;61.44;102308.38;5027476;28;20776;-23
2022/03/10 07:24:52;;;;;;;34.80;20.87;;;;;;;2.38;60.89;102312.88;5027926;28;20308;-21
2022/03/10 07:27:20;;;;;;;36.07;20.50;;;;;;;2.47;60.73;102306.75;5010491;28;20309;-22
2022/03/10 07:29:47;;;;;;;33.97;20.17;;;;;;;2.59;60.16;102312.13;5025670;28;20806;-21
2022/03/10 07:32:16;;;;;;;36.27;20.50;;;;;;;2.62;59.71;102296.66;5007564;28;20808;-24
2022/03/10 07:34:48;;;;;;;37.17;20.47;;;;;;;2.79;59.51;102305.13;5027771;28;20371;-22
2022/03/10 07:37:31;;;;;;;32.93;19.77;;;;;;;2.91;59.38;102309.53;5027392;28;20832;-21
2022/03/10 07:39:58;;;;;;;34.67;20.57;;;;;;;3.03;58.66;102313.00;5027598;28;20299;-21
2022/03/10 07:42:27;;;;;;;34.23;20.50;;;;;;;3.12;58.74;102304.22;5028673;28;20283;-22
2022/03/10 07:45:12;;;;;;;33.03;19.97;;;;;;;3.25;58.59;102312.09;5008188;28;20128;-23
2022/03/10 07:47:52;;;;;;;35.03;19.77;;;;;;;3.37;58.25;102310.19;5027677;28;20043;-26
2022/03/10 07:50:19;;;;;;;33.13;20.73;;;;;;;3.45;57.98;102302.38;4982993;28;20296;-25
2022/03/10 07:53:24;;;;;;;34.47;20.10;;;;;;;3.67;57.36;102311.28;5005664;28;20296;-21
2022/03/10 07:55:55;;;;;;;34.95;21.08;;;;;;;3.86;57.61;102308.75;5007144;28;20563;-21
2022/03/10 07:58:26;;;;;;;33.10;20.00;;;;;;;4.08;57.35;102304.22;4973683;28;20033;-24
2022/03/10 08:00:57;;;;;;;34.53;19.50;;;;;;;4.28;56.32;102309.66;5003916;28;20046;-23
2022/03/10 08:03:23;;;;;;;33.00;20.67;;;;;;;4.55;56.16;102309.06;4978678;28;20085;-24
2022/03/10 08:05:50;;;;;;;31.73;20.50;;;;;;;4.83;54.86;102315.50;4997721;28;20554;-24
2022/03/10 08:08:17;;;;;;;33.93;21.00;;;;;;;5.04;54.95;102307.34;4986141;28;20057;-24
2022/03/10 08:10:44;;;;;;;35.70;20.40;;;;;;;5.41;53.74;102308.50;4986732;28;20184;-25
2022/03/10 08:13:12;;;;;;;35.37;20.43;;;;;;;5.67;52.38;102305.22;4980424;28;20649;-22
2022/03/10 08:15:43;;;;;;;31.87;19.87;;;;;;;5.97;51.64;102311.41;5002772;28;20052;-23
2022/03/10 08:18:29;;;;;;;34.73;20.47;;;;;;;6.30;50.51;102310.06;5009472;28;20048;-25
2022/03/10 08:21:00;;;;;;;33.03;20.63;;;;;;;6.51;49.64;102308.97;5002789;28;20158;-22
2022/03/10 08:23:27;;;;;;;31.37;19.77;;;;;;;6.76;49.08;102310.13;5002357;28;20057;-22
2022/03/10 08:25:54;;;;;;;33.03;20.10;;;;;;;7.08;48.66;102319.56;4967137;28;20087;-22
2022/03/10 08:28:20;;;;;;;33.23;20.80;;;;;;;7.33;48.13;102303.63;5007922;28;20060;-25
2022/03/10 08:30:47;;;;;;;35.07;20.57;;;;;;;7.64;47.69;102295.13;5023034;28;20041;-24
2022/03/10 08:33:31;;;;;;;31.70;20.47;;;;;;;7.96;46.90;102299.09;5007924;28;20037;-22
2022/03/10 08:36:00;;;;;;;30.55;19.85;;;;;;;8.20;46.92;102303.75;5031584;28;20044;-22
2022/03/10 08:39:05;;;;;;;30.70;20.33;;;;;;;8.53;46.70;102307.50;5085685;22;20590;-22
2022/03/10 08:41:35;;;;;;;;;;;;;;;8.97;46.19;102300.22;4983143;28;20100;-25
2022/03/10 08:44:12;;;;;;;38.90;26.80;;;;;;;9.01;45.54;102304.28;4974646;28;20299;-22
2022/03/10 08:46:41;;;;;;;32.63;20.03;;;;;;;9.26;44.15;102289.81;4991024;28;20037;-22
2022/03/10 08:49:13;;;;;;;31.87;20.80;;;;;;;9.40;43.62;102300.97;4972639;28;20076;-22
2022/03/10 08:51:41;;;;;;;31.80;20.47;;;;;;;9.51;43.35;102294.38;4986637;28;20132;-23
2022/03/10 08:54:08;;;;;;;32.40;21.00;;;;;;;9.82;43.72;102294.53;4986616;28;21311;-22
2022/03/10 08:56:40;;;;;;;32.93;20.70;;;;;;;10.00;43.97;102290.78;4967755;28;20037;-27
2022/03/10 08:59:08;;;;;;;30.77;20.70;;;;;;;10.19;42.16;102294.97;4994201;28;20121;-26
2022/03/10 09:04:58;;;;;;;31.70;20.40;;;;;;;10.64;41.81;102290.75;4992598;28;20045;-22
2022/03/10 09:07:28;;;;;;;32.43;20.57;;;;;;;11.04;41.09;102288.81;4986267;28;20042;-23
2022/03/10 09:09:57;;;;;;;35.40;20.70;;;;;;;11.13;40.56;102286.91;4970460;28;20438;-27
2022/03/10 09:12:26;;;;;;;32.07;21.27;;;;;;;11.38;41.49;102281.28;4969803;28;20427;-29
2022/03/10 09:14:52;;;;;;;32.43;20.87;;;;;;;11.46;40.19;102279.38;4988696;28;20040;-23
2022/03/10 09:17:21;;;;;;;31.83;20.77;;;;;;;11.53;39.65;102282.16;4958300;28;20038;-24
2022/03/10 09:19:51;;;;;;;31.20;20.90;;;;;;;11.69;39.92;102277.63;4964701;28;20131;-23
2022/03/10 09:22:20;;;;;;;32.03;21.17;;;;;;;11.73;39.62;102273.53;4973372;28;20073;-23
2022/03/10 09:24:49;;;;;;;33.47;21.20;;;;;;;11.86;39.84;102265.59;4978995;28;20072;-22
2022/03/10 09:27:21;;;;;;;31.97;22.73;;;;;;;12.09;39.60;102265.53;4989511;28;20045;-25
2022/03/10 09:29:48;;;;;;;30.93;21.50;;;;;;;12.38;39.71;102271.16;4964552;28;20483;-23
2022/03/10 09:32:16;;;;;;;31.50;20.63;;;;;;;12.61;38.87;102269.16;4981094;28;20045;-26
2022/03/10 09:34:44;;;;;;;31.80;20.73;;;;;;;12.66;38.09;102266.69;4973848;28;20096;-26
2022/03/10 09:37:14;;;;;;;29.60;20.73;;;;;;;12.77;37.93;102267.22;4966516;28;20036;-26
2022/03/10 09:39:50;;;;;;;32.17;21.50;;;;;;;13.02;37.68;102264.16;4971995;28;20061;-23
2022/03/10 09:42:24;;;;;;;31.20;20.63;;;;;;;13.12;37.64;102261.94;4987967;28;20474;-23
2022/03/10 09:45:00;;;;;;;32.83;22.20;;;;;;;13.51;37.68;102252.50;4997368;28;20391;-25
2022/03/10 09:47:59;;;;;;;31.73;20.67;;;;;;;13.70;36.86;102250.97;4998489;28;20594;-23
2022/03/10 09:50:31;;;;;;;31.93;20.97;;;;;;;13.82;37.31;102251.28;4991784;28;20042;-27
2022/03/10 09:53:04;;;;;;;30.60;20.73;;;;;;;14.07;36.58;102251.63;4993407;28;20421;-23
2022/03/10 09:55:39;;;;;;;31.20;21.00;;;;;;;14.16;36.50;102255.03;4972320;28;20042;-27
2022/03/10 09:58:14;;;;;;;30.63;20.40;;;;;;;14.41;35.31;102252.63;4976778;28;20030;-25
2022/03/10 10:01:09;;;;;;;32.90;21.17;;;;;;;14.44;34.72;102245.94;4986942;28;20042;-26
2022/03/10 10:03:38;;;;;;;31.93;21.07;;;;;;;14.67;37.50;102246.50;4975012;28;20040;-27
2022/03/10 10:06:04;;;;;;;33.23;20.30;;;;;;;14.64;34.79;102238.69;4988776;28;20038;-26
2022/03/10 10:08:32;;;;;;;31.90;20.27;;;;;;;14.63;34.67;102242.50;4969898;28;20049;-26
2022/03/10 10:11:09;;;;;;;31.77;21.23;;;;;;;14.81;35.29;102241.03;4991682;28;20534;-27
2022/03/10 10:13:42;;;;;;;29.80;20.00;;;;;;;14.61;34.69;102230.06;4989951;28;20058;-26
2022/03/10 10:16:24;;;;;;;32.83;20.30;;;;;;;14.89;34.42;102237.28;4989415;28;20128;-29
2022/03/10 10:19:09;;;;;;;30.60;20.38;;;;;;;15.09;35.60;102232.72;4975505;28;20053;-23
2022/03/10 10:21:41;;;;;;;29.30;20.42;;;;;;;15.28;34.58;102233.78;4969395;28;20055;-29
2022/03/10 10:24:18;;;;;;;30.17;19.47;;;;;;;15.42;34.78;102241.97;4961441;28;20042;-25
2022/03/10 10:26:47;;;;;;;29.33;20.57;;;;;;;15.35;33.81;102240.09;4971306;28;20057;-23
2022/03/10 10:29:27;;;;;;;31.13;20.83;;;;;;;15.62;34.78;102231.88;4967301;28;20770;-23
2022/03/10 10:31:56;;;;;;;30.03;20.17;;;;;;;15.34;33.09;102227.47;4966726;28;20398;-26
2022/03/10 10:34:34;;;;;;;30.83;19.77;;;;;;;15.65;34.68;102231.47;4967247;28;20141;-27
2022/03/10 10:37:01;;;;;;;30.67;20.03;;;;;;;15.82;33.82;102225.59;4965555;28;20399;-24
2022/03/10 10:39:27;;;;;;;31.00;19.90;;;;;;;15.58;33.43;102216.13;4965053;28;20257;-27
2022/03/10 10:41:57;;;;;;;30.47;20.23;;;;;;;15.78;34.25;102213.38;4945988;28;20459;-27
2022/03/10 10:44:46;;;;;;;31.03;20.47;;;;;;;15.97;34.22;102217.97;4969729;28;20047;-23
2022/03/10 10:47:13;;;;;;;29.30;18.80;;;;;;;15.99;33.77;102209.56;4950650;28;20165;-28
2022/03/10 10:49:41;;;;;;;30.40;19.47;;;;;;;16.21;33.43;102215.59;4948872;28;20053;-25
2022/03/10 10:52:13;;;;;;;29.53;18.90;;;;;;;16.51;33.84;102206.84;4955288;28;20502;-25
2022/03/10 10:54:42;;;;;;;;;;;;;;;17.16;32.74;102211.28;4965718;28;20123;-27
2022/03/10 10:57:09;;;;;;;30.23;19.97;;;;;;;16.89;32.24;102214.22;4965695;28;20102;-27
2022/03/10 10:59:45;;;;;;;31.57;19.83;;;;;;;16.95;32.55;102212.50;4952111;28;20692;-24
2022/03/10 11:02:22;;;;;;;29.93;19.57;;;;;;;17.32;33.29;102213.44;4970245;28;20040;-24
2022/03/10 11:04:59;;;;;;;31.33;20.67;;;;;;;17.42;31.99;102214.84;4973200;28;20030;-23
2022/03/10 11:07:26;;;;;;;28.53;19.17;;;;;;;17.57;31.50;102204.41;4934200;28;20049;-28
2022/03/10 11:09:57;;;;;;;28.00;19.47;;;;;;;17.73;31.52;102200.22;4944471;28;20069;-23
2022/03/10 11:12:41;;;;;;;28.23;18.87;;;;;;;17.61;32.44;102213.00;4941384;28;20109;-24
2022/03/10 11:15:16;;;;;;;27.83;19.20;;;;;;;17.41;32.65;102194.00;4946412;28;20087;-24
2022/03/10 11:17:45;;;;;;;;;;;;;;;18.07;32.53;102203.47;4950245;28;20040;-25
2022/03/10 11:20:15;;;;;;;27.70;18.23;;;;;;;17.38;31.70;102196.13;4935969;28;20314;-26
2022/03/10 11:23:03;;;;;;;27.30;18.17;;;;;;;17.77;32.05;102193.22;4949490;28;20043;-26
2022/03/10 11:26:18;;;;;;;28.13;18.83;;;;;;;17.86;31.55;102196.50;4947374;28;20085;-24
2022/03/10 11:29:05;;;;;;;28.60;19.17;;;;;;;17.42;32.22;102191.06;4913198;29;20405;-28
2022/03/10 11:31:37;;;;;;;28.30;18.10;;;;;;;17.65;32.04;102190.41;4930446;28;20125;-27
2022/03/10 11:34:09;;;;;;;28.90;18.25;;;;;;;17.61;32.06;102186.44;4930257;28;20531;-24
2022/03/10 11:36:38;;;;;;;27.27;17.13;;;;;;;17.45;32.50;102185.13;4944729;28;20126;-23
2022/03/10 11:39:12;;;;;;;26.15;17.92;;;;;;;17.76;32.33;102175.13;4945975;28;20491;-21
2022/03/10 11:41:45;;;;;;;;;;;;;;;18.61;32.61;102175.34;4947554;28;20054;-24
2022/03/10 11:44:20;;;;;;;26.43;17.37;;;;;;;18.28;32.51;102177.47;4979341;28;19984;-22